Time;durP1;ratioP1;P1;durP2;ratioP2;P2;SDS_P1;SDS_P2;PMS_P1;PMS_P2;Temp;Humidity;BMP_temperature;BMP_pressure;BME280_temperature;BME280_humidity;BME280_pressure;Samples;Min_cycle;Max_cycle;Signal;HPM_P1;HPM_P2
2021/10/14 00:01:20;;;;;;;44.05;25.37;;;;;;;2.67;100.00;99334.70;2177570;82;20969;-83
2021/10/14 00:04:21;;;;;;;44.48;27.17;;;;;;;2.61;100.00;99331.27;2178711;82;21064;-83
2021/10/14 00:07:22;;;;;;;41.92;24.05;;;;;;;2.55;100.00;99329.95;2183354;82;20945;-81
2021/10/14 00:10:23;;;;;;;36.10;22.95;;;;;;;2.43;100.00;99328.28;2183086;82;20969;-82
2021/10/14 00:13:23;;;;;;;32.20;20.97;;;;;;;2.43;100.00;99328.28;2182085;82;21036;-85
2021/10/14 00:16:27;;;;;;;35.30;23.20;;;;;;;2.48;100.00;99334.77;2181760;82;21127;-84
2021/10/14 00:19:27;;;;;;;35.83;19.40;;;;;;;2.44;100.00;99328.16;2182016;82;21054;-83
2021/10/14 00:22:28;;;;;;;30.05;20.45;;;;;;;2.41;100.00;99329.69;2182097;82;21051;-83
2021/10/14 00:25:29;;;;;;;33.23;22.75;;;;;;;2.37;100.00;99333.89;2182000;82;20962;-83
2021/10/14 00:28:30;;;;;;;32.90;21.52;;;;;;;2.34;100.00;99325.08;2182129;82;20997;-83
2021/10/14 00:31:30;;;;;;;34.08;23.15;;;;;;;2.31;100.00;99320.97;2182188;82;21096;-83
2021/10/14 00:34:31;;;;;;;32.85;22.40;;;;;;;2.31;100.00;99326.61;2182137;82;20985;-83
2021/10/14 00:37:32;;;;;;;36.42;22.48;;;;;;;2.28;100.00;99332.33;2182347;82;21012;-82
2021/10/14 00:40:33;;;;;;;32.67;22.50;;;;;;;2.28;100.00;99328.92;2182049;82;21005;-83
2021/10/14 00:43:34;;;;;;;44.63;27.95;;;;;;;2.26;100.00;99335.50;2181926;82;21013;-84
2021/10/14 00:46:34;;;;;;;37.30;24.67;;;;;;;2.25;100.00;99331.27;2181961;82;21000;-83
2021/10/14 00:49:35;;;;;;;31.62;21.27;;;;;;;2.23;100.00;99330.56;2182017;82;21028;-83
2021/10/14 00:52:36;;;;;;;36.35;22.17;;;;;;;2.21;100.00;99332.91;2181919;82;21040;-83
2021/10/14 00:55:37;;;;;;;43.78;23.45;;;;;;;2.18;100.00;99333.12;2182047;82;21049;-84
2021/10/14 00:58:38;;;;;;;40.90;24.47;;;;;;;2.18;100.00;99331.36;2182070;82;20990;-82
2021/10/14 01:01:39;;;;;;;36.15;23.75;;;;;;;2.17;100.00;99331.47;2182197;82;21073;-83
2021/10/14 01:04:39;;;;;;;31.57;21.35;;;;;;;2.17;100.00;99336.64;2180666;81;21013;-85
2021/10/14 01:07:40;;;;;;;38.05;22.98;;;;;;;2.14;100.00;99330.41;2177472;82;21076;-84
2021/10/14 01:10:41;;;;;;;40.60;23.87;;;;;;;2.10;100.00;99339.30;2177514;82;21457;-81
2021/10/14 01:13:42;;;;;;;31.75;21.25;;;;;;;2.09;100.00;99335.08;2178324;82;21032;-78
2021/10/14 01:16:43;;;;;;;30.65;21.52;;;;;;;2.13;100.00;99335.23;2178579;82;21060;-83
2021/10/14 01:19:43;;;;;;;33.48;21.10;;;;;;;2.12;100.00;99337.45;2178000;82;20982;-83
2021/10/14 01:22:44;;;;;;;37.53;22.62;;;;;;;2.11;100.00;99331.47;2177511;82;20938;-84
2021/10/14 01:25:45;;;;;;;43.25;27.48;;;;;;;2.16;100.00;99339.70;2177282;82;21025;-84
2021/10/14 01:28:46;;;;;;;45.10;25.90;;;;;;;2.21;100.00;99334.20;2177234;82;21040;-83
2021/10/14 01:31:47;;;;;;;70.28;29.72;;;;;;;2.28;100.00;99336.68;2177209;82;21028;-83
2021/10/14 01:34:47;;;;;;;56.77;26.52;;;;;;;2.35;100.00;99340.47;2177399;82;21032;-84
2021/10/14 01:37:48;;;;;;;36.65;22.37;;;;;;;2.44;100.00;99342.38;2177495;82;21001;-82
2021/10/14 01:40:49;;;;;;;32.03;19.40;;;;;;;2.50;100.00;99341.12;2177237;82;21038;-83
2021/10/14 01:43:50;;;;;;;29.63;20.27;;;;;;;2.59;100.00;99343.49;2177570;82;21464;-83
2021/10/14 01:46:51;;;;;;;37.08;22.20;;;;;;;2.72;100.00;99338.58;2177171;82;20974;-83
2021/10/14 01:49:52;;;;;;;29.32;20.35;;;;;;;2.72;100.00;99338.58;2177452;82;21544;-84
2021/10/14 01:52:53;;;;;;;30.48;20.10;;;;;;;2.81;100.00;99337.88;2177101;82;21064;-84
2021/10/14 01:55:54;;;;;;;30.30;20.97;;;;;;;2.87;100.00;99343.55;2176864;82;21118;-84
2021/10/14 01:58:54;;;;;;;29.12;18.32;;;;;;;2.93;100.00;99347.80;2177409;82;21041;-82
2021/10/14 02:01:55;;;;;;;27.87;18.95;;;;;;;2.99;100.00;99345.20;2177260;82;21017;-84
2021/10/14 02:04:56;;;;;;;28.92;18.60;;;;;;;3.01;100.00;99344.61;2178518;81;21051;-82
2021/10/14 02:07:57;;;;;;;29.18;18.90;;;;;;;3.06;100.00;99342.52;2182018;82;21429;-84
2021/10/14 02:10:58;;;;;;;24.67;18.50;;;;;;;3.08;100.00;99345.80;2181836;82;21270;-84
2021/10/14 02:13:58;;;;;;;28.67;17.92;;;;;;;3.10;100.00;99346.50;2182084;82;20958;-83
2021/10/14 02:16:59;;;;;;;25.68;17.00;;;;;;;3.08;100.00;99342.73;2181980;82;21017;-85
2021/10/14 02:20:00;;;;;;;27.67;19.10;;;;;;;3.07;100.00;99351.92;2182440;82;21004;-85
2021/10/14 02:23:01;;;;;;;25.55;16.82;;;;;;;3.03;100.00;99352.63;2183252;82;21022;-83
2021/10/14 02:26:02;;;;;;;24.63;17.35;;;;;;;3.01;100.00;99347.20;2182954;82;20942;-84
2021/10/14 02:29:02;;;;;;;30.92;19.52;;;;;;;2.93;100.00;99352.98;2181929;82;21080;-84
2021/10/14 02:32:03;;;;;;;30.48;19.20;;;;;;;2.86;100.00;99356.95;2181939;82;20973;-84
2021/10/14 02:35:04;;;;;;;30.40;19.77;;;;;;;2.78;100.00;99357.99;2181887;82;21009;-83
2021/10/14 02:38:05;;;;;;;26.50;18.42;;;;;;;2.71;100.00;99363.26;2181810;82;20950;-84
2021/10/14 02:41:06;;;;;;;25.52;19.20;;;;;;;2.63;100.00;99355.24;2181868;82;21651;-84
2021/10/14 02:44:06;;;;;;;26.65;18.15;;;;;;;2.58;100.00;99363.36;2182134;82;20992;-83
2021/10/14 02:47:07;;;;;;;24.87;18.32;;;;;;;2.50;100.00;99358.74;2181900;82;21531;-84
2021/10/14 02:50:08;;;;;;;25.35;17.92;;;;;;;2.45;100.00;99372.45;2181984;82;21548;-83
2021/10/14 02:53:09;;;;;;;24.92;17.27;;;;;;;2.41;100.00;99365.05;2181762;82;20977;-84
2021/10/14 02:56:10;;;;;;;28.83;18.20;;;;;;;2.32;100.00;99366.55;2181760;82;21064;-83
2021/10/14 02:59:11;;;;;;;29.15;19.70;;;;;;;2.29;100.00;99364.20;2137309;83;21496;-84
2021/10/14 03:02:12;;;;;;;28.23;18.73;;;;;;;2.26;100.00;99368.27;2165633;82;21060;-84
2021/10/14 03:05:12;;;;;;;26.37;17.65;;;;;;;2.20;100.00;99376.48;2161391;82;21574;-84
2021/10/14 03:08:13;;;;;;;28.42;18.05;;;;;;;2.15;100.00;99375.98;2148444;82;20935;-85
2021/10/14 03:11:14;;;;;;;27.15;16.73;;;;;;;2.12;100.00;99380.09;2129840;84;21016;-84
2021/10/14 03:14:15;;;;;;;26.62;18.07;;;;;;;2.05;100.00;99384.03;2148341;83;21482;-84
2021/10/14 03:17:16;;;;;;;25.10;16.15;;;;;;;2.05;100.00;99381.45;2130023;84;21077;-84
2021/10/14 03:20:17;;;;;;;25.57;18.67;;;;;;;1.99;100.00;99383.52;2130261;83;21052;-84
2021/10/14 03:23:18;;;;;;;24.40;17.55;;;;;;;1.96;100.00;99388.09;2150249;83;20978;-81
2021/10/14 03:26:18;;;;;;;59.35;38.95;;;;;;;1.94;100.00;99388.67;2131827;84;21059;-81
2021/10/14 03:29:19;;;;;;;92.65;50.17;;;;;;;1.89;100.00;99386.87;2148990;83;20966;-83
2021/10/14 03:32:20;;;;;;;37.48;21.70;;;;;;;1.85;100.00;99386.27;2130527;84;21149;-83
2021/10/14 03:35:21;;;;;;;37.73;20.90;;;;;;;1.85;100.00;99388.86;2130089;83;20942;-84
2021/10/14 03:38:22;;;;;;;24.55;16.67;;;;;;;1.82;100.00;99394.21;2129642;84;20969;-84
2021/10/14 03:41:23;;;;;;;29.48;19.55;;;;;;;1.80;100.00;99393.97;2148313;83;21609;-85
2021/10/14 03:44:23;;;;;;;32.08;19.48;;;;;;;1.78;100.00;99399.25;2129677;84;21026;-84
2021/10/14 03:47:24;;;;;;;31.93;20.72;;;;;;;1.77;100.00;99393.73;2129671;83;21117;-84
2021/10/14 03:50:25;;;;;;;31.12;18.65;;;;;;;1.72;100.00;99394.50;2129831;83;21005;-83
2021/10/14 03:53:26;;;;;;;29.77;18.77;;;;;;;1.67;100.00;99396.59;2148371;83;21109;-84
2021/10/14 03:56:27;;;;;;;29.80;18.37;;;;;;;1.64;100.00;99403.23;2129843;84;21005;-83
2021/10/14 03:59:27;;;;;;;25.27;17.12;;;;;;;1.61;100.00;99402.17;2148478;83;21031;-85
2021/10/14 04:02:28;;;;;;;24.27;17.55;;;;;;;1.58;100.00;99399.34;2129795;84;21032;-83
2021/10/14 04:05:29;;;;;;;27.93;18.90;;;;;;;1.55;100.00;99395.66;2130867;83;21117;-84
2021/10/14 04:08:30;;;;;;;27.75;18.77;;;;;;;1.52;100.00;99398.94;2133198;83;21059;-83
2021/10/14 04:11:31;;;;;;;30.62;18.23;;;;;;;1.50;100.00;99399.52;2151082;82;21129;-84
2021/10/14 04:14:32;;;;;;;36.28;21.15;;;;;;;1.48;100.00;99405.25;2132689;83;21012;-84
2021/10/14 04:17:32;;;;;;;31.15;20.10;;;;;;;1.46;100.00;99403.22;2133333;83;21020;-83
2021/10/14 04:20:33;;;;;;;33.63;20.88;;;;;;;1.43;100.00;99401.21;2133270;83;20970;-83
2021/10/14 04:23:34;;;;;;;36.23;21.05;;;;;;;1.42;100.00;99409.06;2151286;83;20985;-82
2021/10/14 04:26:35;;;;;;;39.20;22.00;;;;;;;1.37;100.00;99407.25;2132640;83;20970;-84
2021/10/14 04:29:36;;;;;;;29.12;19.92;;;;;;;1.33;100.00;99401.48;2133244;83;21049;-84
2021/10/14 04:32:36;;;;;;;29.50;20.00;;;;;;;1.31;100.00;99405.11;2151245;82;21108;-83
2021/10/14 04:35:37;;;;;;;33.70;19.20;;;;;;;1.25;100.00;99416.66;2132531;83;20938;-83
2021/10/14 04:38:38;;;;;;;27.02;18.23;;;;;;;1.22;100.00;99410.42;2134013;83;21016;-81
2021/10/14 04:41:39;;;;;;;27.10;18.70;;;;;;;1.25;100.00;99415.83;2151116;82;21042;-82
2021/10/14 04:44:40;;;;;;;30.62;20.35;;;;;;;1.24;100.00;99415.01;2137403;81;21369;-84
2021/10/14 04:47:41;;;;;;;34.63;21.68;;;;;;;1.30;100.00;99414.61;2195474;80;21584;-79
2021/10/14 04:50:42;;;;;;;30.50;21.10;;;;;;;1.35;100.00;99412.52;2196029;81;21003;-82
2021/10/14 04:53:42;;;;;;;30.90;19.35;;;;;;;1.36;100.00;99420.62;2196896;80;21527;-82
2021/10/14 04:56:43;;;;;;;32.83;21.33;;;;;;;1.37;100.00;99420.16;2196791;80;20984;-82
2021/10/14 04:59:44;;;;;;;32.48;22.32;;;;;;;1.41;100.00;99429.35;2197044;80;21024;-82
2021/10/14 05:02:45;;;;;;;31.45;20.25;;;;;;;1.48;100.00;99428.48;2196759;80;20956;-82
2021/10/14 05:05:46;;;;;;;32.95;19.92;;;;;;;1.49;100.00;99426.25;2201076;80;21101;-83
2021/10/14 05:08:47;;;;;;;30.75;20.70;;;;;;;1.56;100.00;99428.78;2164865;82;20997;-85
2021/10/14 05:11:47;;;;;;;40.90;24.25;;;;;;;1.61;100.00;99435.27;2165127;81;20986;-83
2021/10/14 05:14:48;;;;;;;45.92;29.92;;;;;;;1.65;100.00;99435.90;2165602;81;20993;-82
2021/10/14 05:17:49;;;;;;;66.22;33.58;;;;;;;1.71;100.00;99443.20;2168978;82;20978;-83
2021/10/14 05:20:50;;;;;;;59.40;29.12;;;;;;;1.76;100.00;99446.77;2169242;82;21588;-83
2021/10/14 05:23:51;;;;;;;41.48;23.67;;;;;;;1.76;100.00;99450.18;2188812;81;20945;-83
2021/10/14 05:26:52;;;;;;;38.38;22.13;;;;;;;1.79;100.00;99454.30;2169448;82;21068;-83
2021/10/14 05:29:52;;;;;;;31.95;19.73;;;;;;;1.79;100.00;99454.30;2188751;81;21032;-82
2021/10/14 05:32:53;;;;;;;37.65;20.72;;;;;;;1.84;100.00;99459.98;2188774;81;21018;-82
2021/10/14 05:35:54;;;;;;;37.42;23.32;;;;;;;1.84;100.00;99463.86;2188811;81;21072;-82
2021/10/14 05:38:55;;;;;;;43.38;23.85;;;;;;;1.95;100.00;99464.76;2169315;82;20973;-82
2021/10/14 05:41:56;;;;;;;41.08;23.45;;;;;;;2.03;100.00;99469.39;2188788;81;21351;-83
2021/10/14 05:44:57;;;;;;;40.00;22.25;;;;;;;2.16;100.00;99465.47;2188508;81;21100;-82
2021/10/14 05:47:58;;;;;;;34.13;20.88;;;;;;;2.20;100.00;99467.75;2169120;82;21012;-83
2021/10/14 05:50:58;;;;;;;44.50;24.15;;;;;;;2.31;100.00;99469.57;2188817;81;21019;-82
2021/10/14 05:53:59;;;;;;;42.50;24.23;;;;;;;2.35;100.00;99464.53;2169199;82;20985;-83
2021/10/14 05:57:00;;;;;;;40.98;23.98;;;;;;;2.46;100.00;99470.22;2188658;81;21522;-82
2021/10/14 06:00:01;;;;;;;46.55;27.10;;;;;;;2.53;100.00;99465.80;2169136;82;20976;-83
2021/10/14 06:03:02;;;;;;;37.63;21.62;;;;;;;2.63;100.00;99467.72;2188690;81;21000;-82
2021/10/14 06:06:03;;;;;;;37.67;23.02;;;;;;;2.72;100.00;99473.52;2172313;81;21096;-82
2021/10/14 06:09:03;;;;;;;33.42;22.17;;;;;;;2.88;100.00;99468.89;2178915;82;20965;-82
2021/10/14 06:12:04;;;;;;;42.53;23.98;;;;;;;2.97;100.00;99466.92;2183436;81;21056;-82
2021/10/14 06:15:05;;;;;;;40.67;23.30;;;;;;;3.12;100.00;99463.68;2164307;82;20961;-83
2021/10/14 06:18:06;;;;;;;35.43;21.50;;;;;;;3.28;100.00;99466.75;2137782;83;21020;-83
2021/10/14 06:21:07;;;;;;;29.50;19.17;;;;;;;3.42;100.00;99464.44;2208669;81;20958;-84
2021/10/14 06:24:08;;;;;;;31.07;20.37;;;;;;;3.52;100.00;99467.15;2208783;81;20962;-86
2021/10/14 06:27:08;;;;;;;35.58;21.40;;;;;;;3.64;100.00;99461.84;2208696;80;21020;-85
2021/10/14 06:30:09;;;;;;;36.63;22.00;;;;;;;3.77;100.00;99468.70;2208831;81;21013;-86
2021/10/14 06:33:10;;;;;;;29.32;20.25;;;;;;;3.93;100.00;99463.95;2208685;80;21017;-87
2021/10/14 06:36:11;;;;;;;35.55;23.42;;;;;;;4.07;100.00;99461.61;2209414;80;21023;-90
2021/10/14 06:39:12;;;;;;;50.85;32.85;;;;;;;4.14;100.00;99462.78;2208938;80;21616;-93
2021/10/14 06:42:12;;;;;;;58.25;34.27;;;;;;;4.22;100.00;99461.23;2208866;81;21080;-89
2021/10/14 06:45:13;;;;;;;34.92;22.35;;;;;;;4.42;100.00;99462.72;2208780;81;21049;-91
2021/10/14 06:48:14;;;;;;;26.75;18.32;;;;;;;4.48;100.00;99463.06;2208773;80;21500;-88
2021/10/14 06:51:15;;;;;;;28.92;18.00;;;;;;;4.54;100.00;99462.55;2208719;80;21032;-89
2021/10/14 06:54:16;;;;;;;25.32;18.07;;;;;;;4.56;100.00;99461.95;2208627;80;21370;-89
2021/10/14 06:57:17;;;;;;;26.42;17.87;;;;;;;4.64;100.00;99460.52;2208570;81;21519;-87
2021/10/14 07:00:22;;;;;;;21.40;14.60;;;;;;;4.72;100.00;99460.25;2208615;80;21573;-88
2021/10/14 07:03:23;;;;;;;26.48;16.62;;;;;;;4.87;100.00;99465.97;2208712;81;21012;-91
2021/10/14 07:06:24;;;;;;;19.87;13.20;;;;;;;4.97;100.00;99461.67;2208594;80;21128;-88
2021/10/14 07:09:25;;;;;;;24.40;15.35;;;;;;;5.13;100.00;99462.06;2209251;80;21017;-83
2021/10/14 07:12:29;;;;;;;25.88;18.20;;;;;;;5.26;100.00;99455.85;2210921;80;21096;-86
2021/10/14 07:15:30;;;;;;;25.37;16.52;;;;;;;5.41;100.00;99458.00;2209319;81;21523;-89
2021/10/14 07:18:31;;;;;;;24.45;16.07;;;;;;;5.45;100.00;99463.75;2209009;80;21001;-86
2021/10/14 07:21:32;;;;;;;17.95;13.00;;;;;;;5.56;100.00;99464.14;2208828;81;21335;-90
2021/10/14 07:24:33;;;;;;;21.30;12.78;;;;;;;5.65;100.00;99462.89;2208547;80;21127;-88
2021/10/14 07:27:34;;;;;;;20.65;12.20;;;;;;;5.73;100.00;99458.34;2209158;80;22129;-91
2021/10/14 07:30:35;;;;;;;18.48;12.25;;;;;;;5.83;100.00;99468.30;2209217;81;21539;-89
2021/10/14 07:33:35;;;;;;;15.95;10.72;;;;;;;5.97;100.00;99466.69;2209075;81;20982;-91
2021/10/14 07:36:36;;;;;;;17.60;11.43;;;;;;;6.06;100.00;99466.38;2209143;80;21013;-88
2021/10/14 07:39:37;;;;;;;21.05;13.88;;;;;;;6.13;100.00;99466.19;2209643;80;21018;-86
2021/10/14 07:42:38;;;;;;;17.27;11.48;;;;;;;6.20;100.00;99460.78;2211318;80;21257;-88
2021/10/14 07:45:39;;;;;;;16.15;10.25;;;;;;;6.30;100.00;99466.48;2211127;80;20938;-89
2021/10/14 07:48:40;;;;;;;15.38;10.70;;;;;;;6.39;100.00;99464.38;2209907;81;20972;-91
2021/10/14 07:51:41;;;;;;;16.12;10.95;;;;;;;6.48;100.00;99459.66;2209137;80;21096;-90
2021/10/14 07:54:42;;;;;;;21.45;14.23;;;;;;;6.61;100.00;99460.24;2209278;80;21006;-90
2021/10/14 07:57:44;;;;;;;14.63;10.30;;;;;;;6.73;100.00;99465.65;2209065;80;20985;-90
2021/10/14 08:00:45;;;;;;;19.62;11.68;;;;;;;6.84;100.00;99470.71;2209361;80;20977;-90
2021/10/14 08:03:46;;;;;;;20.68;12.18;;;;;;;7.01;100.00;99480.10;2209140;81;21017;-91
2021/10/14 08:06:47;;;;;;;16.37;11.97;;;;;;;7.15;100.00;99478.88;2212108;80;21065;-89
2021/10/14 08:09:48;;;;;;;15.10;10.82;;;;;;;7.24;100.00;99481.46;2219210;79;20973;-89
2021/10/14 08:12:49;;;;;;;24.47;14.18;;;;;;;7.33;100.00;99482.41;2218924;80;21080;-89
2021/10/14 08:15:50;;;;;;;15.98;11.08;;;;;;;7.40;100.00;99482.98;2219214;79;21012;-91
2021/10/14 08:18:51;;;;;;;14.47;10.60;;;;;;;7.44;100.00;99488.75;2219403;80;20981;-91
2021/10/14 08:21:52;;;;;;;24.40;15.55;;;;;;;7.48;100.00;99486.67;2219441;79;20945;-91
2021/10/14 08:24:53;;;;;;;33.30;21.12;;;;;;;7.50;100.00;99487.35;2196161;81;21040;-88
2021/10/14 08:27:54;;;;;;;28.47;16.55;;;;;;;7.51;100.00;99486.42;2196129;81;20984;-85
2021/10/14 08:30:55;;;;;;;18.02;10.48;;;;;;;7.57;100.00;99491.05;2196000;81;21023;-89
2021/10/14 08:33:55;;;;;;;42.55;22.22;;;;;;;7.61;100.00;99488.52;2196282;81;21492;-91
2021/10/14 08:36:56;;;;;;;25.50;15.20;;;;;;;7.69;100.00;99489.45;2196303;81;21072;-86
2021/10/14 08:39:57;;;;;;;39.92;20.37;;;;;;;7.82;100.00;99486.52;2196057;81;20969;-86
2021/10/14 08:42:58;;;;;;;33.20;18.02;;;;;;;7.97;100.00;99488.18;2196396;81;21003;-89
2021/10/14 08:45:59;;;;;;;34.67;20.10;;;;;;;8.03;100.00;99486.28;2195877;81;20976;-84
2021/10/14 08:49:00;;;;;;;33.48;19.52;;;;;;;8.08;100.00;99485.86;2196078;81;21004;-86
2021/10/14 08:52:01;;;;;;;15.45;11.90;;;;;;;8.07;100.00;99481.13;2196227;81;21039;-83
2021/10/14 08:55:02;;;;;;;17.05;11.05;;;;;;;8.05;100.00;99489.59;2195794;81;21016;-86
2021/10/14 08:58:06;;;;;;;12.20;10.00;;;;;;;8.05;100.00;99488.28;2195952;81;20991;-84
2021/10/14 09:01:05;;;;;;;12.95;10.13;;;;;;;8.04;100.00;99483.19;2195690;81;21039;-88
2021/10/14 09:04:06;;;;;;;17.12;11.28;;;;;;;8.04;100.00;99476.67;2196058;81;21016;-82
2021/10/14 09:07:07;;;;;;;15.08;10.10;;;;;;;8.03;100.00;99480.24;2196047;81;21100;-81
2021/10/14 09:10:11;;;;;;;13.35;10.82;;;;;;;8.06;100.00;99483.89;2196883;81;21068;-83
2021/10/14 09:13:10;;;;;;;15.13;10.85;;;;;;;8.06;100.00;99482.58;2196445;81;21032;-82
2021/10/14 09:16:11;;;;;;;17.62;10.08;;;;;;;8.14;100.00;99485.30;2196942;81;21000;-86
2021/10/14 09:19:12;;;;;;;14.00;10.60;;;;;;;8.27;100.00;99485.27;2196755;81;20992;-85
2021/10/14 09:22:16;;;;;;;12.98;10.43;;;;;;;8.38;100.00;99493.41;2196920;81;20988;-86
2021/10/14 09:25:15;;;;;;;14.35;11.22;;;;;;;8.44;100.00;99485.00;2198083;81;21038;-85
2021/10/14 09:28:16;;;;;;;17.35;12.20;;;;;;;8.50;100.00;99489.64;2200171;81;21475;-82
2021/10/14 09:31:17;;;;;;;21.35;18.98;;;;;;;8.57;100.00;99486.42;2198341;81;20984;-83
2021/10/14 09:34:18;;;;;;;20.32;13.60;;;;;;;8.65;100.00;99487.81;2197870;81;21095;-80
2021/10/14 09:37:19;;;;;;;27.95;16.30;;;;;;;8.75;100.00;99481.55;2197960;81;20973;-86
